Flight Track Log - Related Links

Times and Time Zones

All times are in EDT time to prevent confusion due to time zone crossing. See the JZA8199 flight status page for this flight to view local times or setup timezone preferences in your user account.

Time Position Orientation Groundspeed Altitude Reporting Facility
EDT Latitude Longitude Course Direction KTS MPH feet Rate Location/Type
Thu 11:55:44 PM 50.7000 -120.5000 236° Southwest 140 161 3,300  Level Vancouver Center
Thu 11:56:44 PM 50.7167 -120.5500 298° West 150 173 4,700 1,400 Climbing Vancouver Center
Thu 11:57:44 PM 50.7167 -120.6333 270° West 150 173 6,100 1,300 Climbing Vancouver Center
Thu 11:58:44 PM 50.7167 -120.6833 270° West 150 173 7,300 1,150 Climbing Vancouver Center
Thu 11:59:44 PM 50.6833 -120.7333 224° Southwest 170 196 8,400 950 Climbing Vancouver Center
Fri 12:00:00 AM 50.3683 -120.5931 210° Southwest  Level FlightAware Approximate
Fri 12:00:44 AM 50.6333 -120.8000 220° Southwest 190 219 9,200  Level Vancouver Center
Fri 12:01:00 AM 50.3369 -120.6658 236° Southwest  Level Estimated
Fri 12:01:44 AM 50.5833 -120.8500 212° Southwest 210 242 10,500  Level Vancouver Center
Fri 12:02:44 AM 50.5333 -120.9167 220° Southwest 210 242 11,500 967 Climbing Vancouver Center
Fri 12:04:44 AM 50.4167 -120.9667 195° South 220 253 13,400 933 Climbing Vancouver Center
Fri 12:05:44 AM 50.3833 -121.0167 224° Southwest 230 265 14,300 900 Climbing Vancouver Center
Fri 12:06:44 AM 50.3333 -121.1000 227° Southwest 230 265 15,200 800 Climbing Vancouver Center
Fri 12:07:44 AM 50.2833 -121.1667 220° Southwest 240 276 15,900 400 Climbing Vancouver Center
Fri 12:08:44 AM 50.2167 -121.2167 206° Southwest 260 299 16,000 50 Climbing Vancouver Center
Fri 12:09:44 AM 50.1500 -121.3000 219° Southwest 280 322 16,000 50 Level Vancouver Center
Fri 12:10:44 AM 50.0833 -121.3833 219° Southwest 290 334 16,100 50 Climbing Vancouver Center
Fri 12:11:44 AM 50.0167 -121.4667 219° Southwest 300 345 16,100  Level Vancouver Center
Fri 12:12:44 AM 49.9500 -121.5167 206° Southwest 300 345 16,100  Level Vancouver Center
Fri 12:13:44 AM 49.8833 -121.6000 219° Southwest 300 345 16,100  Level Vancouver Center
Fri 12:14:44 AM 49.8167 -121.6833 219° Southwest 300 345 16,100 -50 Level Vancouver Center
Fri 12:15:44 AM 49.7500 -121.7500 213° Southwest 300 345 16,000 -100 Descending Vancouver Center
Fri 12:16:44 AM 49.6833 -121.8667 229° Southwest 310 357 15,900 -700 Descending Vancouver Center
Fri 12:17:44 AM 49.6167 -121.9667 224° Southwest 320 368 14,600 -1,300 Descending Vancouver Center
Fri 12:18:44 AM 49.5833 -122.0667 243° Southwest 330 380 13,300 -1,250 Descending Vancouver Center
Fri 12:19:44 AM 49.5167 -122.1500 219° Southwest 320 368 12,100 -1,150 Descending Vancouver Center
Fri 12:20:44 AM 49.4500 -122.2667 229° Southwest 300 345 11,000 -1,050 Descending Vancouver Center
Fri 12:21:44 AM 49.4000 -122.3333 221° Southwest 290 334 10,000 -500 Descending Vancouver Center
Fri 12:22:44 AM 49.3500 -122.4333 233° Southwest 280 322 10,000  Level Vancouver Center
Fri 12:23:44 AM 49.3167 -122.5500 246° West 280 322 10,000  Level Vancouver Center
Fri 12:24:44 AM 49.2667 -122.6500 233° Southwest 280 322 10,000  Level Vancouver Center
Fri 12:25:44 AM 49.2500 -122.7500 256° West 280 322 10,000  Level Vancouver Center
Fri 12:26:44 AM 49.2333 -122.8833 259° West 270 311 10,000 -200 Level Vancouver Center
Fri 12:27:44 AM 49.2333 -122.9833 270° West 270 311 9,600 -950 Descending Vancouver Center
Fri 12:28:44 AM 49.2500 -123.1167 281° West 280 322 8,100 -1,500 Descending Vancouver Center
Fri 12:29:44 AM 49.2667 -123.2167 284° West 270 311 6,600 -1,500 Descending Vancouver Center
Fri 12:30:44 AM 49.2667 -123.3167 270° West 260 299 5,100 -1,600 Descending Vancouver Center
Fri 12:31:44 AM 49.2833 -123.4167 284° West 240 276 3,400 -1,300 Descending Vancouver Center
Fri 12:32:44 AM 49.2167 -123.4333 189° South 230 265 2,500 -700 Descending Vancouver Center
Fri 12:33:44 AM 49.2000 -123.3667 111° Southeast 200 230 2,000 -700 Descending Vancouver Center
Fri 12:34:44 AM 49.2000 -123.2833 90° East 190 219 1,100 -850 Descending Vancouver Center
Fri 12:35:44 AM 49.1833 -123.2167 111° Southeast 150 173 300 -800 Descending Vancouver Center

Login

Don't have an account? Register now (free) for customized features, flight alerts, and more!